Occitan Key — C6CR5 — position and weather

sailwx.info

Track history (hours):
 
Tides and Currents Weather Stations Pressure Air Temp Water Temp Dewpoint Dewpoint Depression Visibility Wind Speed Wind Dir Waves Ship Positions

Occitan Key

Last reported at 2017-Oct-02 22:30 UTC. Time now 2017-Nov-18 15:30 UTC.
Position N 39°55' W 031°58'.
Warning: this ship's position is 46 days out of date.

Length 165 m; draft 8.9 m.

Type: Cargo ship. MMSI: 311000551.

Date/timePositionNaut miles runAvg speedWind from/ knotsBaromVisibWave heightAir tempDewpointWater temp
2017-Oct-02 22:30N 39°55' W 031°58'611.9
2017-Oct-02 22:00N 39°57' W 031°50'811.8
2017-Oct-02 21:18N 40°00' W 031°40'1211.7
2017-Oct-02 20:19N 40°04' W 031°26'1811.4
2017-Oct-02 18:43N 40°10' W 031°04'311.5
2017-Oct-02 18:27N 40°11' W 030°60'911.4
2017-Oct-02 17:40N 40°14' W 030°49'311.5
2017-Oct-02 17:26N 40°15' W 030°46'511.3
2017-Oct-02 16:58N 40°16' W 030°39'611.3
2017-Oct-02 16:27N 40°18' W 030°31'2811.4
2017-Oct-02 14:00N 40°24' W 029°56'1911.1
2017-Oct-02 12:18N 40°29' W 029°32'4211.2
2017-Oct-02 08:35N 40°41' W 028°39'611.2
2017-Oct-02 08:02N 40°43' W 028°31'  
2017-Sep-28 04:27N 46°48' W 004°14'812.3
2017-Sep-28 03:48N 46°49' W 004°02'512.4
2017-Sep-28 03:22N 46°51' W 003°54'412.0
2017-Sep-28 03:00N 46°52' W 003°48'2512.1
2017-Sep-28 00:56N 46°57' W 003°12'512.3
2017-Sep-28 00:29N 46°57' W 003°04'612.1
2017-Sep-27 23:58N 46°58' W 002°55'612.3
2017-Sep-27 23:29N 46°60' W 002°47'1111.8
2017-Sep-27 22:33N 47°03' W 002°31'011.2
2017-Sep-27 22:30N 47°03' W 002°31'610.2
2017-Sep-27 21:55N 47°06' W 002°23'3 8.0
2017-Sep-27 21:30N 47°09' W 002°20'5 9.3
2017-Sep-27 21:00N 47°13' W 002°17'5 9.9
2017-Sep-27 20:29N 47°16' W 002°11'3 5.8
2017-Sep-27 19:59N 47°18' W 002°08'0 0.3
2017-Sep-27 19:30N 47°18' W 002°08'0 0.0
2017-Sep-27 15:40N 47°18' W 002°08'0 0.0
2017-Sep-27 15:28N 47°18' W 002°08'0 0.0
2017-Sep-27 14:34N 47°18' W 002°08'0 0.0
2017-Sep-27 14:28N 47°18' W 002°08'0 0.0
2017-Sep-27 13:58N 47°18' W 002°08'0 0.0
2017-Sep-27 13:25N 47°18' W 002°08'0 0.0
2017-Sep-27 12:58N 47°18' W 002°08'0 0.0
2017-Sep-27 12:25N 47°18' W 002°08'0 0.0
2017-Sep-27 11:55N 47°18' W 002°08'0 0.0
2017-Sep-27 11:25N 47°18' W 002°08'0 0.0
2017-Sep-27 10:52N 47°18' W 002°08'0 0.0
2017-Sep-27 10:28N 47°18' W 002°08'0 0.0
2017-Sep-27 09:58N 47°18' W 002°08'0 0.0
2017-Sep-27 09:28N 47°18' W 002°08'0 0.0
2017-Sep-27 08:58N 47°18' W 002°08'0 0.0
2017-Sep-27 08:28N 47°18' W 002°08'0 0.0
2017-Sep-27 07:58N 47°18' W 002°08'0 0.0
2017-Sep-27 07:28N 47°18' W 002°08'0 0.0
2017-Sep-27 06:55N 47°18' W 002°08'0 0.0
2017-Sep-27 06:28N 47°18' W 002°08'0 0.0
2017-Sep-27 05:58N 47°18' W 002°08'0 0.0
2017-Sep-27 05:28N 47°18' W 002°08'0 0.0
2017-Sep-27 04:58N 47°18' W 002°08'0 0.0
2017-Sep-27 04:28N 47°18' W 002°08'0 0.0
2017-Sep-27 03:58N 47°18' W 002°08'0 0.0
2017-Sep-27 03:28N 47°18' W 002°08'0 0.0
2017-Sep-27 02:58N 47°18' W 002°08'0 0.0
2017-Sep-27 02:28N 47°18' W 002°08'0 0.0
2017-Sep-27 01:58N 47°18' W 002°08'0 0.0
2017-Sep-27 01:28N 47°18' W 002°08'0 0.0
2017-Sep-27 00:58N 47°18' W 002°08'0 0.0
2017-Sep-27 00:28N 47°18' W 002°08'0 0.0
2017-Sep-26 23:58N 47°18' W 002°08'0 0.0
2017-Sep-26 23:28N 47°18' W 002°08'0 0.0
2017-Sep-26 22:58N 47°18' W 002°08'0 0.0
2017-Sep-26 22:28N 47°18' W 002°08'0 0.0
2017-Sep-26 21:58N 47°18' W 002°08'0 0.0
2017-Sep-26 21:28N 47°18' W 002°08'0 0.2
2017-Sep-26 21:00N 47°18' W 002°08'3 5.2
2017-Sep-26 20:30N 47°18' W 002°04'5 9.5
2017-Sep-26 20:00N 47°17' W 001°57'5 8.9
2017-Sep-26 19:30N 47°15' W 001°51'4 7.7
2017-Sep-26 18:59N 47°13' W 001°47'3 6.8
2017-Sep-26 18:29N 47°12' W 001°42'2 4.8
2017-Sep-26 18:00N 47°11' W 001°39'1 2.9
2017-Sep-26 17:30N 47°12' W 001°36'0 0.0
2017-Sep-26 13:46N 47°12' W 001°36'0 0.0
2017-Sep-26 12:34N 47°12' W 001°36'0 0.0
2017-Sep-26 11:25N 47°12' W 001°36'0 0.0
2017-Sep-26 10:19N 47°12' W 001°36'0 0.0
2017-Sep-26 09:52N 47°12' W 001°36'0 0.0
2017-Sep-26 09:28N 47°12' W 001°36'0 0.0
2017-Sep-26 08:55N 47°12' W 001°36'0 0.0
2017-Sep-26 08:25N 47°12' W 001°36'0 0.0
2017-Sep-26 07:58N 47°12' W 001°36'0 0.0
2017-Sep-26 07:25N 47°12' W 001°36'0 0.0
2017-Sep-26 06:46N 47°12' W 001°36'0 0.0
2017-Sep-26 06:28N 47°12' W 001°36'0 0.0
2017-Sep-26 05:49N 47°12' W 001°36'0 0.0
2017-Sep-26 05:13N 47°12' W 001°36'0 0.0
2017-Sep-26 04:58N 47°12' W 001°36'0 0.0
2017-Sep-26 04:28N 47°12' W 001°36'0 0.0
2017-Sep-26 03:40N 47°12' W 001°36'0 0.0
2017-Sep-26 03:25N 47°12' W 001°36'0 0.0
2017-Sep-26 02:55N 47°12' W 001°36'0 0.0
2017-Sep-26 02:28N 47°12' W 001°36'0 0.0
2017-Sep-26 01:58N 47°12' W 001°36'0 0.0
2017-Sep-26 01:22N 47°12' W 001°36'0 0.0
2017-Sep-26 00:52N 47°12' W 001°36'0 0.0
2017-Sep-26 00:28N 47°12' W 001°36'0 0.0
2017-Sep-25 23:52N 47°12' W 001°36'0 0.0
2017-Sep-25 23:10N 47°12' W 001°36'0 0.1
2017-Sep-25 22:55N 47°12' W 001°36'0 0.0
2017-Sep-25 19:25N 47°12' W 001°36'0 0.0
2017-Sep-25 18:58N 47°12' W 001°36'0 0.0
2017-Sep-25 17:52N 47°12' W 001°36'0 0.0
2017-Sep-25 16:40N 47°12' W 001°36'0 0.0
2017-Sep-25 16:16N 47°12' W 001°36'0 0.0
2017-Sep-25 14:52N 47°12' W 001°36'0 0.0
2017-Sep-25 14:28N 47°12' W 001°36'0 0.0
2017-Sep-25 13:58N 47°12' W 001°36'0 0.0
2017-Sep-25 12:31N 47°12' W 001°36'0 0.0
2017-Sep-25 12:19N 47°12' W 001°36'0 0.0
2017-Sep-25 06:04N 47°12' W 001°36'0 0.0
2017-Sep-25 05:43N 47°12' W 001°36'0 0.0
2017-Sep-25 05:16N 47°12' W 001°36'0 0.0
2017-Sep-25 04:58N 47°12' W 001°36'0 0.0
2017-Sep-25 04:28N 47°12' W 001°36'0 0.0
2017-Sep-25 03:58N 47°12' W 001°36'0 0.0
2017-Sep-25 03:25N 47°12' W 001°36'0 0.0
2017-Sep-25 02:46N 47°12' W 001°36'0 0.0
2017-Sep-25 02:28N 47°12' W 001°36'0 0.0
2017-Sep-25 01:01N 47°12' W 001°36'0 0.0
2017-Sep-25 00:58N 47°12' W 001°36'0 0.0
2017-Sep-25 00:28N 47°12' W 001°36'0 0.0
2017-Sep-24 23:58N 47°12' W 001°36'0 0.0
2017-Sep-24 23:28N 47°12' W 001°36'0 0.0
2017-Sep-24 22:58N 47°12' W 001°36'0 0.0
2017-Sep-24 22:28N 47°12' W 001°36'0 0.0
2017-Sep-24 21:58N 47°12' W 001°36'0 0.0
2017-Sep-24 21:25N 47°12' W 001°36'0 0.0
2017-Sep-24 20:55N 47°12' W 001°36'0 0.0
2017-Sep-24 20:28N 47°12' W 001°36'0 0.0
2017-Sep-24 19:58N 47°12' W 001°36'0 0.0
2017-Sep-24 19:25N 47°12' W 001°36'0 0.0
2017-Sep-24 18:55N 47°12' W 001°36'0 0.0
2017-Sep-24 18:28N 47°12' W 001°36'0 0.0
2017-Sep-24 17:55N 47°12' W 001°36'0 0.0
2017-Sep-24 17:25N 47°12' W 001°36'0 0.0
2017-Sep-24 16:58N 47°12' W 001°36'0 0.0
2017-Sep-24 16:25N 47°12' W 001°36'0 0.0
2017-Sep-24 15:58N 47°12' W 001°36'0 0.0
2017-Sep-24 15:28N 47°12' W 001°36'0 0.0
2017-Sep-24 14:46N 47°12' W 001°36'0 0.0
2017-Sep-24 14:22N 47°12' W 001°36'0 0.0
2017-Sep-24 13:58N 47°12' W 001°36'0 0.0
2017-Sep-24 13:28N 47°12' W 001°36'0 0.0
2017-Sep-24 12:58N 47°12' W 001°36'0 0.0
2017-Sep-24 12:22N 47°12' W 001°36'0 0.0
2017-Sep-24 11:31N 47°12' W 001°36'0 0.0
2017-Sep-24 11:25N 47°12' W 001°36'0 0.0
2017-Sep-24 10:52N 47°12' W 001°36'0 0.0
2017-Sep-24 10:28N 47°12' W 001°36'0 0.0
2017-Sep-24 09:58N 47°12' W 001°36'0 0.0
2017-Sep-24 09:28N 47°12' W 001°36'0 0.0
2017-Sep-24 08:58N 47°12' W 001°36'0 0.0
2017-Sep-24 08:28N 47°12' W 001°36'0 0.0
2017-Sep-24 07:58N 47°12' W 001°36'0 0.0
2017-Sep-24 07:28N 47°12' W 001°36'0 0.0
2017-Sep-24 06:58N 47°12' W 001°36'0 0.0
2017-Sep-24 06:28N 47°12' W 001°36'0 0.0
2017-Sep-24 05:55N 47°12' W 001°36'0 0.0
2017-Sep-24 05:28N 47°12' W 001°36'0 0.0
2017-Sep-24 04:58N 47°12' W 001°36'0 0.0
2017-Sep-24 04:28N 47°12' W 001°36'0 0.0
2017-Sep-24 03:58N 47°12' W 001°36'0 0.0
2017-Sep-24 03:28N 47°12' W 001°36'0 0.0
2017-Sep-24 02:58N 47°12' W 001°36'0 0.0
2017-Sep-24 02:28N 47°12' W 001°36'0 0.0
2017-Sep-24 01:58N 47°12' W 001°36'0 0.0
2017-Sep-24 01:28N 47°12' W 001°36'0 0.0
2017-Sep-24 00:55N 47°12' W 001°36'0 0.0
2017-Sep-24 00:22N 47°12' W 001°36'0 0.0
2017-Sep-23 23:58N 47°12' W 001°36'0 0.0
2017-Sep-23 23:28N 47°12' W 001°36'0 0.0
2017-Sep-23 22:58N 47°12' W 001°36'0 0.0
2017-Sep-23 22:28N 47°12' W 001°36'0 0.0
2017-Sep-23 21:58N 47°12' W 001°36'0 0.0
2017-Sep-23 21:25N 47°12' W 001°36'0 0.0
2017-Sep-23 20:58N 47°12' W 001°36'0 0.0
2017-Sep-23 20:28N 47°12' W 001°36'0 0.0
2017-Sep-23 19:58N 47°12' W 001°36'  
Track history (hours):
 
Tides and Currents Weather Stations Pressure Air Temp Water Temp Dewpoint Dewpoint Depression Visibility Wind Speed Wind Dir Waves Ship Positions

Occitan Key

Last reported at 2017-Oct-02 22:30 UTC. Time now 2017-Nov-18 15:30 UTC.
Position N 39°55' W 031°58'.
Warning: this ship's position is 46 days out of date.

Length 165 m; draft 8.9 m.

Type: Cargo ship. MMSI: 311000551.

Date/timePositionNaut miles runAvg speedWind from/ knotsBaromVisibWave heightAir tempDewpointWater temp
2017-Oct-02 22:30N 39°55' W 031°58'611.9
2017-Oct-02 22:00N 39°57' W 031°50'811.8
2017-Oct-02 21:18N 40°00' W 031°40'1211.7
2017-Oct-02 20:19N 40°04' W 031°26'1811.4
2017-Oct-02 18:43N 40°10' W 031°04'311.5
2017-Oct-02 18:27N 40°11' W 030°60'911.4
2017-Oct-02 17:40N 40°14' W 030°49'311.5
2017-Oct-02 17:26N 40°15' W 030°46'511.3
2017-Oct-02 16:58N 40°16' W 030°39'611.3
2017-Oct-02 16:27N 40°18' W 030°31'2811.4
2017-Oct-02 14:00N 40°24' W 029°56'1911.1
2017-Oct-02 12:18N 40°29' W 029°32'4211.2
2017-Oct-02 08:35N 40°41' W 028°39'611.2
2017-Oct-02 08:02N 40°43' W 028°31'  
2017-Sep-28 04:27N 46°48' W 004°14'812.3
2017-Sep-28 03:48N 46°49' W 004°02'512.4
2017-Sep-28 03:22N 46°51' W 003°54'412.0
2017-Sep-28 03:00N 46°52' W 003°48'2512.1
2017-Sep-28 00:56N 46°57' W 003°12'512.3
2017-Sep-28 00:29N 46°57' W 003°04'612.1
2017-Sep-27 23:58N 46°58' W 002°55'612.3
2017-Sep-27 23:29N 46°60' W 002°47'1111.8
2017-Sep-27 22:33N 47°03' W 002°31'011.2
2017-Sep-27 22:30N 47°03' W 002°31'610.2
2017-Sep-27 21:55N 47°06' W 002°23'3 8.0
2017-Sep-27 21:30N 47°09' W 002°20'5 9.3
2017-Sep-27 21:00N 47°13' W 002°17'5 9.9
2017-Sep-27 20:29N 47°16' W 002°11'3 5.8
2017-Sep-27 19:59N 47°18' W 002°08'0 0.3
2017-Sep-27 19:30N 47°18' W 002°08'0 0.0
2017-Sep-27 15:40N 47°18' W 002°08'0 0.0
2017-Sep-27 15:28N 47°18' W 002°08'0 0.0
2017-Sep-27 14:34N 47°18' W 002°08'0 0.0
2017-Sep-27 14:28N 47°18' W 002°08'0 0.0
2017-Sep-27 13:58N 47°18' W 002°08'0 0.0
2017-Sep-27 13:25N 47°18' W 002°08'0 0.0
2017-Sep-27 12:58N 47°18' W 002°08'0 0.0
2017-Sep-27 12:25N 47°18' W 002°08'0 0.0
2017-Sep-27 11:55N 47°18' W 002°08'0 0.0
2017-Sep-27 11:25N 47°18' W 002°08'0 0.0
2017-Sep-27 10:52N 47°18' W 002°08'0 0.0
2017-Sep-27 10:28N 47°18' W 002°08'0 0.0
2017-Sep-27 09:58N 47°18' W 002°08'0 0.0
2017-Sep-27 09:28N 47°18' W 002°08'0 0.0
2017-Sep-27 08:58N 47°18' W 002°08'0 0.0
2017-Sep-27 08:28N 47°18' W 002°08'0 0.0
2017-Sep-27 07:58N 47°18' W 002°08'0 0.0
2017-Sep-27 07:28N 47°18' W 002°08'0 0.0
2017-Sep-27 06:55N 47°18' W 002°08'0 0.0
2017-Sep-27 06:28N 47°18' W 002°08'0 0.0
2017-Sep-27 05:58N 47°18' W 002°08'0 0.0
2017-Sep-27 05:28N 47°18' W 002°08'0 0.0
2017-Sep-27 04:58N 47°18' W 002°08'0 0.0
2017-Sep-27 04:28N 47°18' W 002°08'0 0.0
2017-Sep-27 03:58N 47°18' W 002°08'0 0.0
2017-Sep-27 03:28N 47°18' W 002°08'0 0.0
2017-Sep-27 02:58N 47°18' W 002°08'0 0.0
2017-Sep-27 02:28N 47°18' W 002°08'0 0.0
2017-Sep-27 01:58N 47°18' W 002°08'0 0.0
2017-Sep-27 01:28N 47°18' W 002°08'0 0.0
2017-Sep-27 00:58N 47°18' W 002°08'0 0.0
2017-Sep-27 00:28N 47°18' W 002°08'0 0.0
2017-Sep-26 23:58N 47°18' W 002°08'0 0.0
2017-Sep-26 23:28N 47°18' W 002°08'0 0.0
2017-Sep-26 22:58N 47°18' W 002°08'0 0.0
2017-Sep-26 22:28N 47°18' W 002°08'0 0.0
2017-Sep-26 21:58N 47°18' W 002°08'0 0.0
2017-Sep-26 21:28N 47°18' W 002°08'0 0.2
2017-Sep-26 21:00N 47°18' W 002°08'3 5.2
2017-Sep-26 20:30N 47°18' W 002°04'5 9.5
2017-Sep-26 20:00N 47°17' W 001°57'5 8.9
2017-Sep-26 19:30N 47°15' W 001°51'4 7.7
2017-Sep-26 18:59N 47°13' W 001°47'3 6.8
2017-Sep-26 18:29N 47°12' W 001°42'2 4.8
2017-Sep-26 18:00N 47°11' W 001°39'1 2.9
2017-Sep-26 17:30N 47°12' W 001°36'0 0.0
2017-Sep-26 13:46N 47°12' W 001°36'0 0.0
2017-Sep-26 12:34N 47°12' W 001°36'0 0.0
2017-Sep-26 11:25N 47°12' W 001°36'0 0.0
2017-Sep-26 10:19N 47°12' W 001°36'0 0.0
2017-Sep-26 09:52N 47°12' W 001°36'0 0.0
2017-Sep-26 09:28N 47°12' W 001°36'0 0.0
2017-Sep-26 08:55N 47°12' W 001°36'0 0.0
2017-Sep-26 08:25N 47°12' W 001°36'0 0.0
2017-Sep-26 07:58N 47°12' W 001°36'0 0.0
2017-Sep-26 07:25N 47°12' W 001°36'0 0.0
2017-Sep-26 06:46N 47°12' W 001°36'0 0.0
2017-Sep-26 06:28N 47°12' W 001°36'0 0.0
2017-Sep-26 05:49N 47°12' W 001°36'0 0.0
2017-Sep-26 05:13N 47°12' W 001°36'0 0.0
2017-Sep-26 04:58N 47°12' W 001°36'0 0.0
2017-Sep-26 04:28N 47°12' W 001°36'0 0.0
2017-Sep-26 03:40N 47°12' W 001°36'0 0.0
2017-Sep-26 03:25N 47°12' W 001°36'0 0.0
2017-Sep-26 02:55N 47°12' W 001°36'0 0.0
2017-Sep-26 02:28N 47°12' W 001°36'0 0.0
2017-Sep-26 01:58N 47°12' W 001°36'0 0.0
2017-Sep-26 01:22N 47°12' W 001°36'0 0.0
2017-Sep-26 00:52N 47°12' W 001°36'0 0.0
2017-Sep-26 00:28N 47°12' W 001°36'0 0.0
2017-Sep-25 23:52N 47°12' W 001°36'0 0.0
2017-Sep-25 23:10N 47°12' W 001°36'0 0.1
2017-Sep-25 22:55N 47°12' W 001°36'0 0.0
2017-Sep-25 19:25N 47°12' W 001°36'0 0.0
2017-Sep-25 18:58N 47°12' W 001°36'0 0.0
2017-Sep-25 17:52N 47°12' W 001°36'0 0.0
2017-Sep-25 16:40N 47°12' W 001°36'0 0.0
2017-Sep-25 16:16N 47°12' W 001°36'0 0.0
2017-Sep-25 14:52N 47°12' W 001°36'0 0.0
2017-Sep-25 14:28N 47°12' W 001°36'0 0.0
2017-Sep-25 13:58N 47°12' W 001°36'0 0.0
2017-Sep-25 12:31N 47°12' W 001°36'0 0.0
2017-Sep-25 12:19N 47°12' W 001°36'0 0.0
2017-Sep-25 06:04N 47°12' W 001°36'0 0.0
2017-Sep-25 05:43N 47°12' W 001°36'0 0.0
2017-Sep-25 05:16N 47°12' W 001°36'0 0.0
2017-Sep-25 04:58N 47°12' W 001°36'0 0.0
2017-Sep-25 04:28N 47°12' W 001°36'0 0.0
2017-Sep-25 03:58N 47°12' W 001°36'0 0.0
2017-Sep-25 03:25N 47°12' W 001°36'0 0.0
2017-Sep-25 02:46N 47°12' W 001°36'0 0.0
2017-Sep-25 02:28N 47°12' W 001°36'0 0.0
2017-Sep-25 01:01N 47°12' W 001°36'0 0.0
2017-Sep-25 00:58N 47°12' W 001°36'0 0.0
2017-Sep-25 00:28N 47°12' W 001°36'0 0.0
2017-Sep-24 23:58N 47°12' W 001°36'0 0.0
2017-Sep-24 23:28N 47°12' W 001°36'0 0.0
2017-Sep-24 22:58N 47°12' W 001°36'0 0.0
2017-Sep-24 22:28N 47°12' W 001°36'0 0.0
2017-Sep-24 21:58N 47°12' W 001°36'0 0.0
2017-Sep-24 21:25N 47°12' W 001°36'0 0.0
2017-Sep-24 20:55N 47°12' W 001°36'0 0.0
2017-Sep-24 20:28N 47°12' W 001°36'0 0.0
2017-Sep-24 19:58N 47°12' W 001°36'0 0.0
2017-Sep-24 19:25N 47°12' W 001°36'0 0.0
2017-Sep-24 18:55N 47°12' W 001°36'0 0.0
2017-Sep-24 18:28N 47°12' W 001°36'0 0.0
2017-Sep-24 17:55N 47°12' W 001°36'0 0.0
2017-Sep-24 17:25N 47°12' W 001°36'0 0.0
2017-Sep-24 16:58N 47°12' W 001°36'0 0.0
2017-Sep-24 16:25N 47°12' W 001°36'0 0.0
2017-Sep-24 15:58N 47°12' W 001°36'0 0.0
2017-Sep-24 15:28N 47°12' W 001°36'0 0.0
2017-Sep-24 14:46N 47°12' W 001°36'0 0.0
2017-Sep-24 14:22N 47°12' W 001°36'0 0.0
2017-Sep-24 13:58N 47°12' W 001°36'0 0.0
2017-Sep-24 13:28N 47°12' W 001°36'0 0.0
2017-Sep-24 12:58N 47°12' W 001°36'0 0.0
2017-Sep-24 12:22N 47°12' W 001°36'0 0.0
2017-Sep-24 11:31N 47°12' W 001°36'0 0.0
2017-Sep-24 11:25N 47°12' W 001°36'0 0.0
2017-Sep-24 10:52N 47°12' W 001°36'0 0.0
2017-Sep-24 10:28N 47°12' W 001°36'0 0.0
2017-Sep-24 09:58N 47°12' W 001°36'0 0.0
2017-Sep-24 09:28N 47°12' W 001°36'0 0.0
2017-Sep-24 08:58N 47°12' W 001°36'0 0.0
2017-Sep-24 08:28N 47°12' W 001°36'0 0.0
2017-Sep-24 07:58N 47°12' W 001°36'0 0.0
2017-Sep-24 07:28N 47°12' W 001°36'0 0.0
2017-Sep-24 06:58N 47°12' W 001°36'0 0.0
2017-Sep-24 06:28N 47°12' W 001°36'0 0.0
2017-Sep-24 05:55N 47°12' W 001°36'0 0.0
2017-Sep-24 05:28N 47°12' W 001°36'0 0.0
2017-Sep-24 04:58N 47°12' W 001°36'0 0.0
2017-Sep-24 04:28N 47°12' W 001°36'0 0.0
2017-Sep-24 03:58N 47°12' W 001°36'0 0.0
2017-Sep-24 03:28N 47°12' W 001°36'0 0.0
2017-Sep-24 02:58N 47°12' W 001°36'0 0.0
2017-Sep-24 02:28N 47°12' W 001°36'0 0.0
2017-Sep-24 01:58N 47°12' W 001°36'0 0.0
2017-Sep-24 01:28N 47°12' W 001°36'0 0.0
2017-Sep-24 00:55N 47°12' W 001°36'0 0.0
2017-Sep-24 00:22N 47°12' W 001°36'0 0.0
2017-Sep-23 23:58N 47°12' W 001°36'0 0.0
2017-Sep-23 23:28N 47°12' W 001°36'0 0.0
2017-Sep-23 22:58N 47°12' W 001°36'0 0.0
2017-Sep-23 22:28N 47°12' W 001°36'0 0.0
2017-Sep-23 21:58N 47°12' W 001°36'0 0.0
2017-Sep-23 21:25N 47°12' W 001°36'0 0.0
2017-Sep-23 20:58N 47°12' W 001°36'0 0.0
2017-Sep-23 20:28N 47°12' W 001°36'0 0.0
2017-Sep-23 19:58N 47°12' W 001°36'  

Dump ship's entire track history